createdAt,value
2022-08-05T00:00:54.754Z,25.19
2022-08-05T00:01:54.753Z,25.25
2022-08-05T00:02:54.702Z,25.27
2022-08-05T00:03:54.644Z,25.27
2022-08-05T00:04:55.711Z,25.25
2022-08-05T00:06:05.236Z,25.25
2022-08-05T00:06:55.611Z,25.24
2022-08-05T00:08:00.319Z,25.24
2022-08-05T00:08:55.575Z,25.25
2022-08-05T00:09:54.695Z,25.25
2022-08-05T00:10:54.552Z,25.28
2022-08-05T00:11:56.113Z,25.35
2022-08-05T00:12:56.101Z,25.37
2022-08-05T00:13:54.505Z,25.39
2022-08-05T00:14:54.505Z,25.43
2022-08-05T00:16:00.175Z,25.47
2022-08-05T00:16:55.493Z,25.49
2022-08-05T00:17:54.455Z,25.53
2022-08-05T00:18:54.455Z,25.54
2022-08-05T00:19:55.415Z,25.54
2022-08-05T00:20:55.413Z,25.54
2022-08-05T00:21:54.421Z,25.54
2022-08-05T00:22:56.008Z,25.53
2022-08-05T00:24:10.008Z,25.50
2022-08-05T00:24:55.356Z,25.47
2022-08-05T00:25:54.338Z,25.43
2022-08-05T00:26:54.356Z,25.42
2022-08-05T00:27:54.318Z,25.37
2022-08-05T00:28:54.307Z,25.31
2022-08-05T00:29:54.379Z,25.30
2022-08-05T00:30:54.318Z,25.27
2022-08-05T00:32:12.301Z,25.24
2022-08-05T00:32:55.259Z,25.20
2022-08-05T00:34:55.332Z,25.19
2022-08-05T00:35:06.387Z,25.16
2022-08-05T00:36:16.225Z,25.09
2022-08-05T00:37:10.881Z,25.00
2022-08-05T00:37:55.779Z,24.90
2022-08-05T00:38:54.234Z,24.82
2022-08-05T00:39:58.454Z,24.82
2022-08-05T00:40:54.157Z,24.85
2022-08-05T00:41:55.490Z,24.90
2022-08-05T00:42:54.123Z,25.00
2022-08-05T00:43:54.098Z,25.05
2022-08-05T00:44:54.090Z,25.06
2022-08-05T00:45:54.090Z,25.06
2022-08-05T00:47:02.059Z,25.01
2022-08-05T00:47:57.724Z,25.00
2022-08-05T00:48:55.040Z,24.97
2022-08-05T00:49:54.069Z,24.94
2022-08-05T00:50:54.028Z,24.94
2022-08-05T00:51:53.998Z,24.97
2022-08-05T00:52:55.346Z,25.00
2022-08-05T00:54:02.348Z,25.01
2022-08-05T00:54:55.007Z,25.02
2022-08-05T00:55:53.943Z,24.98
2022-08-05T00:56:53.933Z,24.92
2022-08-05T00:57:58.168Z,24.87
2022-08-05T00:58:54.903Z,24.83
2022-08-05T00:59:53.881Z,24.80
2022-08-05T01:00:53.929Z,24.80
2022-08-05T01:01:53.889Z,24.80
2022-08-05T01:02:53.844Z,24.82
2022-08-05T01:03:53.823Z,24.79
2022-08-05T01:04:53.814Z,24.82
2022-08-05T01:05:54.717Z,24.79
2022-08-05T01:06:53.834Z,24.73
2022-08-05T01:08:39.977Z,24.68
2022-08-05T01:08:54.766Z,24.63
2022-08-05T01:09:55.722Z,24.59
2022-08-05T01:10:53.746Z,24.52
2022-08-05T01:11:53.727Z,24.45
2022-08-05T01:13:03.254Z,24.49
2022-08-05T01:13:58.642Z,24.54
2022-08-05T01:14:53.694Z,24.59
2022-08-05T01:15:53.663Z,24.57
2022-08-05T01:16:53.653Z,24.56
2022-08-05T01:17:54.247Z,24.52
2022-08-05T01:18:56.431Z,24.49
2022-08-05T01:20:02.240Z,24.49
2022-08-05T01:20:54.608Z,24.49
2022-08-05T01:21:53.585Z,24.49
2022-08-05T01:22:53.587Z,24.50
2022-08-05T01:23:53.569Z,24.49
2022-08-05T01:24:53.576Z,24.50
2022-08-05T01:25:54.069Z,24.44
2022-08-05T01:26:53.529Z,24.41
2022-08-05T01:27:55.488Z,24.35
2022-08-05T01:28:53.508Z,24.24
2022-08-05T01:29:53.496Z,24.20
2022-08-05T01:30:55.181Z,24.17
2022-08-05T01:31:53.474Z,24.22
2022-08-05T01:32:53.458Z,24.27
2022-08-05T01:33:54.085Z,24.32
2022-08-05T01:34:53.426Z,24.35
2022-08-05T01:35:53.565Z,24.34
2022-08-05T01:36:53.420Z,24.34
2022-08-05T01:37:53.399Z,24.27
2022-08-05T01:39:01.370Z,24.19
2022-08-05T01:39:53.481Z,24.10
2022-08-05T01:40:53.354Z,24.01
2022-08-05T01:41:53.363Z,23.90
2022-08-05T01:42:53.334Z,23.83
2022-08-05T01:43:53.317Z,23.83
2022-08-05T01:44:53.893Z,23.86
2022-08-05T01:45:56.449Z,23.86
2022-08-05T01:46:53.277Z,23.83
2022-08-05T01:47:54.539Z,23.76
2022-08-05T01:48:53.257Z,23.71
2022-08-05T01:50:00.201Z,23.64
2022-08-05T01:50:54.227Z,23.60
2022-08-05T01:51:53.217Z,23.50
2022-08-05T01:52:53.204Z,23.39
2022-08-05T01:53:57.582Z,23.32
2022-08-05T01:54:54.356Z,23.29
2022-08-05T01:55:53.155Z,23.34
2022-08-05T01:58:12.558Z,23.58
2022-08-05T01:58:29.496Z,23.45
2022-08-05T01:58:54.147Z,23.70
2022-08-05T01:59:53.165Z,23.80
2022-08-05T02:00:53.087Z,23.83
2022-08-05T02:01:54.790Z,23.77
2022-08-05T02:02:54.982Z,23.75
2022-08-05T02:03:53.064Z,23.79
2022-08-05T02:04:53.059Z,23.83
2022-08-05T02:05:53.423Z,23.83
2022-08-05T02:06:54.018Z,23.86
2022-08-05T02:07:59.942Z,23.87
2022-08-05T02:08:58.327Z,23.87
2022-08-05T02:09:52.987Z,23.87
2022-08-05T02:10:52.950Z,23.83
2022-08-05T02:11:52.952Z,23.79
2022-08-05T02:12:52.935Z,23.80
2022-08-05T02:13:53.611Z,23.82
2022-08-05T02:14:53.198Z,23.76
2022-08-05T02:15:52.907Z,23.65
2022-08-05T02:16:53.386Z,23.60
2022-08-05T02:18:31.447Z,23.47
2022-08-05T02:18:53.872Z,23.35
2022-08-05T02:19:52.863Z,23.26
2022-08-05T02:20:52.839Z,23.22
2022-08-05T02:21:52.845Z,23.15
2022-08-05T02:22:52.814Z,23.07
2022-08-05T02:23:52.842Z,22.97
2022-08-05T02:24:52.802Z,22.90
2022-08-05T02:25:52.780Z,22.83
2022-08-05T02:26:53.860Z,22.82
2022-08-05T02:27:58.335Z,22.82
2022-08-05T02:28:53.720Z,22.92
2022-08-05T02:29:59.724Z,23.04
2022-08-05T02:30:54.384Z,23.14
2022-08-05T02:31:52.682Z,23.20
2022-08-05T02:32:52.674Z,23.15
2022-08-05T02:33:57.813Z,22.92
2022-08-05T02:34:54.612Z,22.68
2022-08-05T02:35:58.923Z,22.59
2022-08-05T02:36:53.653Z,22.56
2022-08-05T02:37:54.142Z,22.67
2022-08-05T02:38:53.387Z,22.82
2022-08-05T02:39:52.682Z,22.94
2022-08-05T02:40:52.577Z,23.02
2022-08-05T02:41:58.049Z,23.02
2022-08-05T02:42:54.169Z,22.96
2022-08-05T02:44:02.347Z,22.83
2022-08-05T02:44:53.515Z,22.67
2022-08-05T02:45:53.840Z,22.60
2022-08-05T02:46:58.420Z,22.56
2022-08-05T02:48:11.701Z,22.53
2022-08-05T02:48:53.486Z,22.46
2022-08-05T02:49:52.454Z,22.47
2022-08-05T02:50:52.537Z,22.62
2022-08-05T02:52:03.151Z,22.72
2022-08-05T02:52:53.415Z,22.82
2022-08-05T02:53:54.752Z,22.86
2022-08-05T02:54:52.406Z,22.86
2022-08-05T02:55:59.644Z,22.86
2022-08-05T02:56:53.368Z,22.77
2022-08-05T02:58:12.236Z,22.62
2022-08-05T02:58:53.329Z,22.53
2022-08-05T02:59:52.318Z,22.56
2022-08-05T03:00:52.318Z,22.65
2022-08-05T03:01:52.347Z,22.72
2022-08-05T03:02:52.320Z,22.80
2022-08-05T03:04:04.232Z,22.78
2022-08-05T03:04:53.477Z,22.59
2022-08-05T03:06:53.819Z,22.41
2022-08-05T03:06:59.542Z,22.37
2022-08-05T03:08:06.811Z,22.38
2022-08-05T03:08:53.248Z,22.32
2022-08-05T03:09:52.188Z,22.28
2022-08-05T03:11:47.611Z,22.35
2022-08-05T03:11:57.907Z,22.41
2022-08-05T03:12:53.158Z,22.50
2022-08-05T03:14:03.333Z,22.60
2022-08-05T03:14:53.122Z,22.74
2022-08-05T03:15:52.130Z,22.84
2022-08-05T03:16:53.512Z,22.87
2022-08-05T03:17:54.177Z,22.86
2022-08-05T03:18:52.131Z,22.80
2022-08-05T03:19:52.090Z,22.71
2022-08-05T03:20:52.051Z,22.71
2022-08-05T03:21:52.121Z,22.72
2022-08-05T03:22:52.021Z,22.72
2022-08-05T03:23:52.009Z,22.62
2022-08-05T03:24:52.207Z,22.49
2022-08-05T03:26:30.343Z,22.31
2022-08-05T03:26:52.979Z,22.23
2022-08-05T03:27:59.341Z,22.17
2022-08-05T03:28:52.932Z,22.14
2022-08-05T03:30:07.594Z,22.22
2022-08-05T03:30:52.933Z,22.28
2022-08-05T03:31:57.280Z,22.34
2022-08-05T03:32:52.911Z,22.29
2022-08-05T03:33:53.126Z,22.22
2022-08-05T03:34:51.863Z,22.23
2022-08-05T03:35:51.868Z,22.31
2022-08-05T03:36:52.345Z,22.35
2022-08-05T03:37:53.508Z,22.43
2022-08-05T03:38:52.560Z,22.49
2022-08-05T03:39:58.823Z,22.56
2022-08-05T03:40:52.823Z,22.54
2022-08-05T03:41:52.635Z,22.52
2022-08-05T03:42:52.861Z,22.50
2022-08-05T03:44:08.239Z,22.49
2022-08-05T03:44:52.748Z,22.50
2022-08-05T03:45:57.694Z,22.56
2022-08-05T03:46:52.714Z,22.64
2022-08-05T03:47:51.703Z,22.69
2022-08-05T03:48:52.684Z,22.74
2022-08-05T03:49:52.444Z,22.77
2022-08-05T03:50:51.655Z,22.84
2022-08-05T03:52:38.780Z,22.90
2022-08-05T03:55:49.760Z,23.01
2022-08-05T03:55:50.559Z,22.97
2022-08-05T03:55:53.092Z,22.97
2022-08-05T03:56:11.630Z,23.01
2022-08-05T03:56:52.578Z,23.05
2022-08-05T03:57:51.601Z,23.04
2022-08-05T03:58:51.573Z,22.99
2022-08-05T03:59:54.775Z,22.94
2022-08-05T04:00:52.524Z,22.94
2022-08-05T04:01:51.610Z,22.97
2022-08-05T04:02:58.154Z,22.99
2022-08-05T04:04:09.159Z,23.02
2022-08-05T04:04:52.457Z,23.05
2022-08-05T04:05:51.457Z,23.07
2022-08-05T04:06:51.718Z,23.07
2022-08-05T04:07:58.490Z,23.08
2022-08-05T04:08:52.408Z,23.11
2022-08-05T04:09:53.683Z,23.12
2022-08-05T04:10:51.478Z,23.11
2022-08-05T04:11:52.702Z,23.01
2022-08-05T04:12:51.379Z,22.92
2022-08-05T04:13:53.431Z,22.82
2022-08-05T04:14:51.342Z,22.71
2022-08-05T04:15:52.639Z,22.71
2022-08-05T04:16:52.369Z,22.74
2022-08-05T04:17:56.289Z,22.77
2022-08-05T04:18:54.158Z,22.72
2022-08-05T04:19:54.353Z,22.64
2022-08-05T04:20:51.260Z,22.59
2022-08-05T04:22:09.783Z,22.65
2022-08-05T04:22:52.227Z,22.74
2022-08-05T04:23:57.190Z,22.84
2022-08-05T04:24:52.879Z,22.93
2022-08-05T04:25:57.404Z,22.96
2022-08-05T04:26:52.302Z,22.96
2022-08-05T04:27:56.830Z,22.89
2022-08-05T04:28:52.266Z,22.83
2022-08-05T04:29:51.143Z,22.82
2022-08-05T04:30:51.143Z,22.87
2022-08-05T04:31:51.122Z,22.93
2022-08-05T04:32:51.114Z,22.99
2022-08-05T04:33:54.634Z,23.07
2022-08-05T04:34:52.073Z,23.12
2022-08-05T04:36:15.988Z,23.19
2022-08-05T04:36:52.062Z,23.27
2022-08-05T04:38:00.849Z,23.38
2022-08-05T04:38:52.104Z,23.43
2022-08-05T04:39:52.679Z,23.50
2022-08-05T04:40:51.097Z,23.55
2022-08-05T04:41:51.409Z,23.55
2022-08-05T04:42:52.107Z,23.53
2022-08-05T04:43:52.062Z,23.57
2022-08-05T04:44:51.116Z,23.62
2022-08-05T04:45:54.878Z,23.71
2022-08-05T04:46:50.913Z,23.77
2022-08-05T04:47:50.904Z,23.86
2022-08-05T04:48:51.666Z,23.92
2022-08-05T04:50:01.977Z,23.98
2022-08-05T04:51:02.848Z,24.02
2022-08-05T04:52:00.210Z,24.07
2022-08-05T04:52:51.846Z,24.04
2022-08-05T04:53:50.836Z,24.02
2022-08-05T04:54:50.836Z,24.04
2022-08-05T04:56:33.874Z,24.05
2022-08-05T04:56:53.574Z,24.08
2022-08-05T04:57:54.154Z,24.14
2022-08-05T04:58:50.906Z,24.23
2022-08-05T04:59:50.747Z,24.32
2022-08-05T05:00:51.000Z,24.39
2022-08-05T05:02:06.711Z,24.49
2022-08-05T05:02:51.861Z,24.54
2022-08-05T05:03:50.699Z,24.57
2022-08-05T05:04:51.538Z,24.54
2022-08-05T05:06:38.840Z,24.52
2022-08-05T05:06:52.075Z,24.47
2022-08-05T05:07:56.128Z,24.37
2022-08-05T05:08:51.650Z,24.31
2022-08-05T05:09:50.632Z,24.13
2022-08-05T05:10:56.233Z,24.07
2022-08-05T05:11:55.541Z,24.01
2022-08-05T05:12:51.590Z,23.98
2022-08-05T05:13:50.569Z,23.90
2022-08-05T05:14:51.336Z,23.89
2022-08-05T05:15:56.568Z,23.94
2022-08-05T05:16:51.695Z,23.95
2022-08-05T05:17:55.508Z,24.01
2022-08-05T05:19:16.363Z,24.12
2022-08-05T05:19:51.510Z,24.24
2022-08-05T05:20:50.534Z,24.41
2022-08-05T05:21:50.652Z,24.54
2022-08-05T05:22:51.479Z,24.68
2022-08-05T05:24:04.101Z,24.79
2022-08-05T05:24:58.974Z,24.87
2022-08-05T05:25:51.422Z,24.92
2022-08-05T05:26:51.961Z,24.97
2022-08-05T05:27:55.701Z,24.95
2022-08-05T05:28:51.393Z,24.94
2022-08-05T05:30:03.990Z,24.87
2022-08-05T05:30:51.356Z,24.87
2022-08-05T05:31:50.343Z,24.88
2022-08-05T05:32:50.363Z,24.91
2022-08-05T05:33:58.665Z,24.95
2022-08-05T05:34:52.325Z,25.01
2022-08-05T05:35:50.295Z,25.12
2022-08-05T05:36:51.259Z,25.19
2022-08-05T05:37:59.744Z,25.25
2022-08-05T05:38:51.277Z,25.32
2022-08-05T05:39:50.280Z,25.38
2022-08-05T05:40:51.849Z,25.42
2022-08-05T05:41:54.444Z,25.47
2022-08-05T05:42:50.186Z,25.52
2022-08-05T05:43:57.662Z,25.54
2022-08-05T05:44:51.177Z,25.52
2022-08-05T05:45:50.162Z,25.46
2022-08-05T05:46:50.155Z,25.42
2022-08-05T05:48:06.350Z,25.31
2022-08-05T05:48:51.127Z,25.31
2022-08-05T05:49:52.536Z,25.24
2022-08-05T05:50:51.107Z,25.19
2022-08-05T05:51:50.785Z,25.15
2022-08-05T05:52:50.240Z,25.16
2022-08-05T05:53:57.635Z,25.16
2022-08-05T05:54:51.318Z,25.12
2022-08-05T05:55:52.126Z,25.09
2022-08-05T05:56:51.029Z,24.95
2022-08-05T05:57:52.902Z,24.87
2022-08-05T05:58:49.990Z,24.91
2022-08-05T05:59:49.969Z,24.80
2022-08-05T06:00:49.959Z,24.79
2022-08-05T06:01:57.652Z,24.82
2022-08-05T06:02:50.968Z,24.85
2022-08-05T06:04:00.584Z,24.82
2022-08-05T06:04:50.907Z,24.82
2022-08-05T06:05:53.907Z,24.79
2022-08-05T06:06:49.877Z,24.69
2022-08-05T06:08:01.121Z,24.60
2022-08-05T06:08:50.899Z,24.64
2022-08-05T06:10:00.854Z,24.73
2022-08-05T06:10:52.857Z,24.80
2022-08-05T06:12:01.474Z,24.82
2022-08-05T06:12:50.803Z,24.88
2022-08-05T06:13:53.877Z,24.95
2022-08-05T06:14:51.841Z,25.06
2022-08-05T06:16:29.649Z,25.13
2022-08-05T06:16:50.773Z,25.22
2022-08-05T06:17:53.647Z,25.24
2022-08-05T06:18:50.712Z,25.20
2022-08-05T06:19:56.567Z,25.10
2022-08-05T06:20:50.702Z,25.09
2022-08-05T06:21:50.023Z,25.06
2022-08-05T06:22:49.653Z,24.95
2022-08-05T06:23:49.821Z,24.90
2022-08-05T06:24:49.631Z,24.92
2022-08-05T06:26:13.878Z,24.90
2022-08-05T06:26:52.085Z,24.98
2022-08-05T06:28:11.106Z,25.06
2022-08-05T06:28:50.599Z,25.09
2022-08-05T06:30:04.232Z,25.06
2022-08-05T06:30:50.592Z,25.05
2022-08-05T06:31:49.535Z,24.97
2022-08-05T06:32:50.863Z,25.00
2022-08-05T06:34:07.072Z,25.01
2022-08-05T06:34:53.556Z,25.05
2022-08-05T06:36:07.389Z,25.07
2022-08-05T06:36:57.472Z,25.13
2022-08-05T06:37:58.075Z,25.17
2022-08-05T06:38:50.445Z,25.24
2022-08-05T06:39:49.425Z,25.28
2022-08-05T06:40:49.481Z,25.30
2022-08-05T06:41:49.428Z,25.31
2022-08-05T06:42:51.895Z,25.38
2022-08-05T06:43:57.926Z,25.38
2022-08-05T06:44:50.379Z,25.47
2022-08-05T06:46:07.098Z,25.57
2022-08-05T06:46:50.707Z,25.67
2022-08-05T06:48:47.060Z,25.72
2022-08-05T06:48:58.619Z,25.77
2022-08-05T06:50:01.695Z,25.86
2022-08-05T06:50:50.328Z,25.97
2022-08-05T06:51:49.268Z,26.02
2022-08-05T06:53:04.062Z,26.06
2022-08-05T06:53:53.536Z,26.15
2022-08-05T06:54:53.399Z,26.17
2022-08-05T06:55:49.220Z,26.15
2022-08-05T06:56:54.967Z,26.15
2022-08-05T06:58:03.003Z,26.21
2022-08-05T06:58:50.177Z,26.35
2022-08-05T06:59:56.463Z,26.44
2022-08-05T07:00:50.217Z,26.43
2022-08-05T07:01:52.889Z,26.49
2022-08-05T07:02:53.490Z,26.52
2022-08-05T07:03:50.122Z,26.59
2022-08-05T07:04:49.100Z,26.64
2022-08-05T07:05:49.083Z,26.61
2022-08-05T07:06:50.410Z,26.67
2022-08-05T07:07:49.094Z,26.74
2022-08-05T07:08:52.018Z,26.61
2022-08-05T07:09:50.034Z,26.58
2022-08-05T07:10:52.568Z,26.64
2022-08-05T07:11:51.532Z,26.69
2022-08-05T07:12:49.299Z,26.73
2022-08-05T07:13:57.748Z,26.72
2022-08-05T07:14:49.962Z,26.65
2022-08-05T07:16:01.839Z,26.64
2022-08-05T07:17:59.875Z,26.55
2022-08-05T07:18:01.614Z,26.62
2022-08-05T07:18:49.970Z,26.80
2022-08-05T07:20:49.883Z,26.99
2022-08-05T07:22:00.733Z,27.05
2022-08-05T07:22:49.866Z,27.16
2022-08-05T07:23:50.006Z,27.23
2022-08-05T07:24:52.660Z,27.31
2022-08-05T07:25:56.492Z,27.31
2022-08-05T07:26:49.816Z,27.32
2022-08-05T07:27:58.468Z,27.57
2022-08-05T07:28:49.803Z,27.76
2022-08-05T07:30:27.321Z,27.84
2022-08-05T07:30:52.906Z,27.64
2022-08-05T07:31:54.533Z,27.57
2022-08-05T07:32:50.866Z,27.59
2022-08-05T07:33:48.729Z,27.71
2022-08-05T07:34:48.715Z,27.76
2022-08-05T07:36:02.373Z,27.64
2022-08-05T07:36:49.696Z,27.69
2022-08-05T07:37:48.677Z,27.77
2022-08-05T07:38:55.689Z,27.67
2022-08-05T07:40:27.095Z,27.58
2022-08-05T07:40:55.543Z,27.67
2022-08-05T07:42:13.824Z,27.77
2022-08-05T07:42:49.617Z,27.79
2022-08-05T07:43:48.597Z,27.91
2022-08-05T07:44:48.577Z,27.96
2022-08-05T07:45:57.719Z,27.99
2022-08-05T07:46:50.332Z,28.06
2022-08-05T07:47:48.566Z,28.14
2022-08-05T07:49:02.030Z,28.21
2022-08-05T07:49:54.618Z,28.21
2022-08-05T07:50:49.517Z,28.16
2022-08-05T07:51:53.878Z,28.16
2022-08-05T07:52:49.529Z,28.28
2022-08-05T07:53:50.548Z,28.26
2022-08-05T07:54:49.209Z,28.25
2022-08-05T07:56:06.339Z,28.35
2022-08-05T07:57:13.740Z,28.35
2022-08-05T07:57:56.339Z,28.22
2022-08-05T07:58:57.703Z,28.13
2022-08-05T07:59:49.396Z,28.04
2022-08-05T08:00:48.396Z,27.99
2022-08-05T08:01:52.448Z,28.06
2022-08-05T08:03:14.907Z,27.99
2022-08-05T08:03:49.353Z,27.96
2022-08-05T08:04:49.156Z,28.03
2022-08-05T08:05:49.806Z,27.92
2022-08-05T08:06:48.302Z,28.04
2022-08-05T08:07:59.939Z,27.98
2022-08-05T08:08:49.303Z,28.01
2022-08-05T08:09:48.254Z,28.09
2022-08-05T08:10:48.942Z,28.16
2022-08-05T08:11:58.949Z,28.23
2022-08-05T08:12:49.716Z,28.36
2022-08-05T08:13:49.595Z,28.22
2022-08-05T08:14:49.214Z,28.09
2022-08-05T08:16:34.457Z,27.94
2022-08-05T08:16:50.821Z,27.76
2022-08-05T08:17:52.553Z,27.62
2022-08-05T08:18:50.220Z,27.62
2022-08-05T08:20:23.059Z,27.51
2022-08-05T08:21:02.872Z,27.47
2022-08-05T08:21:49.117Z,27.43
2022-08-05T08:22:48.099Z,27.47
2022-08-05T08:24:00.968Z,27.47
2022-08-05T08:24:51.277Z,27.43
2022-08-05T08:25:59.831Z,27.48
2022-08-05T08:26:49.055Z,27.42
2022-08-05T08:27:51.446Z,27.43
2022-08-05T08:28:59.120Z,27.41
2022-08-05T08:30:06.088Z,27.33
2022-08-05T08:30:49.924Z,27.32
2022-08-05T08:31:48.409Z,27.38
2022-08-05T08:32:47.971Z,27.35
2022-08-05T08:33:51.405Z,27.36
2022-08-05T08:34:48.959Z,27.50
2022-08-05T08:35:52.277Z,27.61
2022-08-05T08:36:54.657Z,27.61
2022-08-05T08:37:48.969Z,27.54
2022-08-05T08:38:53.314Z,27.47
2022-08-05T08:39:49.733Z,27.48
2022-08-05T08:40:51.459Z,27.61
2022-08-05T08:41:51.930Z,27.70
2022-08-05T08:42:52.358Z,27.66
2022-08-05T08:45:16.689Z,27.85
2022-08-05T08:45:24.352Z,27.71
2022-08-05T08:45:48.811Z,27.88
2022-08-05T08:46:47.790Z,27.89
2022-08-05T08:48:10.568Z,27.77
2022-08-05T08:49:07.950Z,27.69
2022-08-05T08:50:23.166Z,27.57
2022-08-05T08:51:22.492Z,27.42
2022-08-05T08:52:03.506Z,27.39
2022-08-05T08:52:51.852Z,27.29
2022-08-05T08:53:47.695Z,27.14
2022-08-05T08:54:47.694Z,27.04
2022-08-05T08:56:03.383Z,27.02
2022-08-05T08:56:49.664Z,27.01
2022-08-05T08:57:58.106Z,27.02
2022-08-05T08:58:49.581Z,27.09
2022-08-05T08:59:49.044Z,27.13
2022-08-05T09:00:47.694Z,27.11
2022-08-05T09:01:57.475Z,27.13
2022-08-05T09:02:48.582Z,27.11
2022-08-05T09:03:47.586Z,27.05
2022-08-05T09:05:16.955Z,26.92
2022-08-05T09:06:08.881Z,26.65
2022-08-05T09:06:49.942Z,26.32
2022-08-05T09:07:57.655Z,26.09
2022-08-05T09:08:48.504Z,25.83
2022-08-05T09:09:47.488Z,25.52
2022-08-05T09:10:47.487Z,25.37
2022-08-05T09:11:52.781Z,25.32
2022-08-05T09:12:51.068Z,25.24
2022-08-05T09:14:10.274Z,25.19
2022-08-05T09:14:56.432Z,25.24
2022-08-05T09:15:48.408Z,25.20
2022-08-05T09:16:48.726Z,25.17
2022-08-05T09:17:49.655Z,25.15
2022-08-05T09:18:47.370Z,25.12
2022-08-05T09:19:55.148Z,25.10
2022-08-05T09:20:48.348Z,25.09
2022-08-05T09:22:21.798Z,25.05
2022-08-05T09:22:51.917Z,25.02
2022-08-05T09:23:47.298Z,25.09
2022-08-05T09:24:47.288Z,25.10
2022-08-05T09:26:01.167Z,25.16
2022-08-05T09:26:48.267Z,25.22
2022-08-05T09:28:03.830Z,25.32
2022-08-05T09:28:48.299Z,25.38
2022-08-05T09:29:48.014Z,25.44
2022-08-05T09:30:47.209Z,25.53
2022-08-05T09:32:40.331Z,25.64
2022-08-05T09:32:48.191Z,25.77
2022-08-05T09:33:47.172Z,25.82
2022-08-05T09:34:47.227Z,25.84
2022-08-05T09:35:47.130Z,25.80
2022-08-05T09:36:55.650Z,25.82
2022-08-05T09:38:18.485Z,25.83
2022-08-05T09:38:48.132Z,25.82
2022-08-05T09:39:52.313Z,25.86
2022-08-05T09:40:53.540Z,25.79
2022-08-05T09:41:52.739Z,25.69
2022-08-05T09:42:48.395Z,25.62
2022-08-05T09:43:49.422Z,25.61
2022-08-05T09:44:50.455Z,25.61
2022-08-05T09:46:07.854Z,25.64
2022-08-05T09:46:53.577Z,25.62
2022-08-05T09:47:56.321Z,25.61
2022-08-05T09:48:55.457Z,25.54
2022-08-05T09:50:01.503Z,25.52
2022-08-05T09:50:47.980Z,25.53
2022-08-05T09:51:49.401Z,25.61
2022-08-05T09:52:46.921Z,25.59
2022-08-05T09:53:54.516Z,25.59
2022-08-05T09:54:47.892Z,25.61
2022-08-05T09:55:58.453Z,25.62
2022-08-05T09:56:51.861Z,25.67
2022-08-05T09:57:46.857Z,25.62
2022-08-05T09:58:47.409Z,25.62
2022-08-05T09:59:46.856Z,25.62
2022-08-05T10:00:46.817Z,25.64
2022-08-05T10:01:46.816Z,25.65
2022-08-05T10:02:46.868Z,25.65
2022-08-05T10:03:59.139Z,25.68
2022-08-05T10:04:47.769Z,25.71
2022-08-05T10:05:46.746Z,25.77
2022-08-05T10:06:54.665Z,25.75
2022-08-05T10:08:11.029Z,25.72
2022-08-05T10:08:50.412Z,25.72
2022-08-05T10:09:47.706Z,25.67
2022-08-05T10:10:48.299Z,25.64
2022-08-05T10:11:47.722Z,25.64
2022-08-05T10:12:49.431Z,25.50
2022-08-05T10:13:48.420Z,25.42
2022-08-05T10:14:46.637Z,25.39
2022-08-05T10:15:46.626Z,25.37
2022-08-05T10:16:52.751Z,25.34
2022-08-05T10:17:56.586Z,25.24
2022-08-05T10:18:48.289Z,25.10
2022-08-05T10:20:04.400Z,24.97
2022-08-05T10:20:48.386Z,24.82
2022-08-05T10:21:46.598Z,24.69
2022-08-05T10:22:50.888Z,24.45
2022-08-05T10:23:59.087Z,24.35
2022-08-05T10:24:47.552Z,24.26
2022-08-05T10:25:46.511Z,24.26
2022-08-05T10:26:48.955Z,24.26
2022-08-05T10:28:12.699Z,24.20
2022-08-05T10:28:47.538Z,24.10
2022-08-05T10:30:41.080Z,24.08
2022-08-05T10:32:47.845Z,24.05
2022-08-05T10:32:53.762Z,24.05
2022-08-05T10:33:00.775Z,24.12
2022-08-05T10:33:52.480Z,24.16
2022-08-05T10:34:47.382Z,24.23
2022-08-05T10:35:50.847Z,24.34
2022-08-05T10:36:47.332Z,24.47
2022-08-05T10:37:46.321Z,24.64
2022-08-05T10:38:46.309Z,24.80
2022-08-05T10:39:59.525Z,24.95
2022-08-05T10:40:47.340Z,25.10
2022-08-05T10:41:47.226Z,25.22
2022-08-05T10:42:46.266Z,25.34
2022-08-05T10:43:46.254Z,25.38
2022-08-05T10:44:46.244Z,25.39
2022-08-05T10:45:46.245Z,25.39
2022-08-05T10:46:46.223Z,25.43
2022-08-05T10:47:56.150Z,25.43
2022-08-05T10:48:57.318Z,25.42
2022-08-05T10:49:48.887Z,25.35
2022-08-05T10:50:46.154Z,25.24
2022-08-05T10:51:48.663Z,25.06
2022-08-05T10:52:49.735Z,24.90
2022-08-05T10:53:46.114Z,24.83
2022-08-05T10:54:46.889Z,24.76
2022-08-05T10:56:03.856Z,24.76
2022-08-05T10:56:47.096Z,24.82
2022-08-05T10:57:46.067Z,24.88
2022-08-05T10:58:48.577Z,24.91
2022-08-05T11:00:03.581Z,24.94
2022-08-05T11:00:47.028Z,24.94
2022-08-05T11:01:54.512Z,24.94
2022-08-05T11:02:50.635Z,24.95
2022-08-05T11:03:46.022Z,24.92
2022-08-05T11:04:45.965Z,24.88
2022-08-05T11:05:45.947Z,24.88
2022-08-05T11:06:45.937Z,24.92
2022-08-05T11:08:02.952Z,24.91
2022-08-05T11:08:46.929Z,24.85
2022-08-05T11:09:46.895Z,24.88
2022-08-05T11:11:00.053Z,24.87
2022-08-05T11:11:53.235Z,24.79
2022-08-05T11:12:50.874Z,24.77
2022-08-05T11:13:57.759Z,24.64
2022-08-05T11:15:01.274Z,24.63
2022-08-05T11:16:01.252Z,24.64
2022-08-05T11:16:56.659Z,24.61
2022-08-05T11:17:57.233Z,24.56
2022-08-05T11:18:47.211Z,24.49
2022-08-05T11:20:16.773Z,24.47
2022-08-05T11:20:46.802Z,24.44
2022-08-05T11:21:49.543Z,24.47
2022-08-05T11:22:49.962Z,24.47
2022-08-05T11:24:04.856Z,24.47
2022-08-05T11:25:01.598Z,24.47
2022-08-05T11:26:05.371Z,24.54
2022-08-05T11:26:49.398Z,24.63
2022-08-05T11:27:51.053Z,24.71
2022-08-05T11:28:46.651Z,24.77
2022-08-05T11:29:45.671Z,24.94
2022-08-05T11:30:45.622Z,25.06
2022-08-05T11:31:58.166Z,25.09
2022-08-05T11:32:47.908Z,24.97
2022-08-05T11:33:47.694Z,24.90
2022-08-05T11:34:50.963Z,24.87
2022-08-05T11:36:02.826Z,24.77
2022-08-05T11:36:46.849Z,24.82
2022-08-05T11:38:36.806Z,24.85
2022-08-05T11:38:51.771Z,24.94
2022-08-05T11:39:47.970Z,25.10
2022-08-05T11:40:45.493Z,25.25
2022-08-05T11:41:58.035Z,25.32
2022-08-05T11:42:46.466Z,25.38
2022-08-05T11:44:06.251Z,25.49
2022-08-05T11:44:53.891Z,25.54
2022-08-05T11:46:27.041Z,25.52
2022-08-05T11:47:10.297Z,25.68
2022-08-05T11:47:49.533Z,25.89
2022-08-05T11:48:45.365Z,25.99
2022-08-05T11:49:49.847Z,26.20
2022-08-05T11:50:46.346Z,26.18
2022-08-05T11:51:49.401Z,26.35
2022-08-05T11:52:46.120Z,26.31
2022-08-05T11:53:45.329Z,26.37
2022-08-05T11:54:46.751Z,26.40
2022-08-05T11:55:46.297Z,26.43
2022-08-05T11:56:45.278Z,26.57
2022-08-05T11:58:10.481Z,26.72
2022-08-05T11:58:52.933Z,26.76
2022-08-05T11:59:50.158Z,26.77
2022-08-05T12:00:46.937Z,26.55
2022-08-05T12:01:46.207Z,26.72
2022-08-05T12:02:45.320Z,26.76
2022-08-05T12:03:56.112Z,26.67
2022-08-05T12:04:46.169Z,26.72
2022-08-05T12:05:46.180Z,26.72
2022-08-05T12:06:48.737Z,26.62
2022-08-05T12:08:03.664Z,26.55
2022-08-05T12:08:50.956Z,26.55
2022-08-05T12:09:53.294Z,26.76
2022-08-05T12:10:46.621Z,26.83
2022-08-05T12:11:45.163Z,26.77
2022-08-05T12:12:59.260Z,26.72
2022-08-05T12:13:48.648Z,26.57
2022-08-05T12:14:47.292Z,26.67
2022-08-05T12:15:49.983Z,26.64
2022-08-05T12:16:45.120Z,26.74
2022-08-05T12:18:04.274Z,26.76
2022-08-05T12:18:52.484Z,26.89
2022-08-05T12:20:17.114Z,27.10
2022-08-05T12:20:45.972Z,27.21
2022-08-05T12:21:44.963Z,27.33
2022-08-05T12:22:46.112Z,27.50
2022-08-05T12:23:44.922Z,27.74
2022-08-05T12:24:49.452Z,27.80
2022-08-05T12:25:45.909Z,27.79
2022-08-05T12:26:44.875Z,27.79
2022-08-05T12:27:52.849Z,27.69
2022-08-05T12:28:46.392Z,27.82
2022-08-05T12:29:44.853Z,27.91
2022-08-05T12:30:46.272Z,27.96
2022-08-05T12:31:53.153Z,28.25
2022-08-05T12:32:45.816Z,28.46
2022-08-05T12:33:44.806Z,28.46
2022-08-05T12:34:44.790Z,28.56
2022-08-05T12:35:44.893Z,28.56
2022-08-05T12:36:44.852Z,28.43
2022-08-05T12:37:44.767Z,28.40
2022-08-05T12:38:44.745Z,28.44
2022-08-05T12:39:44.757Z,28.40
2022-08-05T12:40:45.696Z,28.50
2022-08-05T12:41:44.700Z,28.59
2022-08-05T12:42:44.687Z,28.81
2022-08-05T12:43:44.668Z,29.06
2022-08-05T12:44:44.821Z,29.07
2022-08-05T12:45:50.040Z,29.19
2022-08-05T12:46:45.835Z,29.38
2022-08-05T12:48:01.429Z,29.59
2022-08-05T12:48:45.630Z,29.75
2022-08-05T12:50:04.814Z,29.62
2022-08-05T12:50:45.626Z,29.55
2022-08-05T12:52:13.081Z,29.55
2022-08-05T12:52:45.610Z,29.45
2022-08-05T12:53:44.570Z,29.10